sensor_id;sensor_type;location;lat;lon;timestamp;temperature;humidity
3996;DHT22;2012;49.794;9.722;2023-11-19T00:01:58;7.50;99.90
3996;DHT22;2012;49.794;9.722;2023-11-19T00:04:25;7.60;99.90
3996;DHT22;2012;49.794;9.722;2023-11-19T00:06:52;7.60;99.90
3996;DHT22;2012;49.794;9.722;2023-11-19T00:09:19;7.60;99.90
3996;DHT22;2012;49.794;9.722;2023-11-19T00:11:46;7.60;99.90
3996;DHT22;2012;49.794;9.722;2023-11-19T00:14:16;7.60;99.90
3996;DHT22;2012;49.794;9.722;2023-11-19T00:16:43;7.60;99.90
3996;DHT22;2012;49.794;9.722;2023-11-19T00:19:11;7.60;99.90
3996;DHT22;2012;49.794;9.722;2023-11-19T00:21:38;7.60;99.90
3996;DHT22;2012;49.794;9.722;2023-11-19T00:24:05;7.50;99.90
3996;DHT22;2012;49.794;9.722;2023-11-19T00:26:33;7.70;99.90
3996;DHT22;2012;49.794;9.722;2023-11-19T00:29:00;7.60;99.90
3996;DHT22;2012;49.794;9.722;2023-11-19T00:31:27;7.70;99.90
3996;DHT22;2012;49.794;9.722;2023-11-19T00:33:54;7.70;99.90
3996;DHT22;2012;49.794;9.722;2023-11-19T00:36:21;7.70;99.90
3996;DHT22;2012;49.794;9.722;2023-11-19T00:38:51;7.80;99.90
3996;DHT22;2012;49.794;9.722;2023-11-19T00:41:19;7.80;99.90
3996;DHT22;2012;49.794;9.722;2023-11-19T00:43:46;7.80;99.90
3996;DHT22;2012;49.794;9.722;2023-11-19T00:46:13;7.80;99.90
3996;DHT22;2012;49.794;9.722;2023-11-19T00:48:40;7.80;99.90
3996;DHT22;2012;49.794;9.722;2023-11-19T00:51:07;7.80;99.90
3996;DHT22;2012;49.794;9.722;2023-11-19T00:53:34;7.80;99.90
3996;DHT22;2012;49.794;9.722;2023-11-19T00:56:01;7.80;99.90
3996;DHT22;2012;49.794;9.722;2023-11-19T00:58:28;7.80;99.90
3996;DHT22;2012;49.794;9.722;2023-11-19T01:00:56;7.80;99.90
3996;DHT22;2012;49.794;9.722;2023-11-19T01:03:24;7.80;99.90
3996;DHT22;2012;49.794;9.722;2023-11-19T01:05:51;7.80;99.90
3996;DHT22;2012;49.794;9.722;2023-11-19T01:08:20;7.80;99.90
3996;DHT22;2012;49.794;9.722;2023-11-19T01:10:47;7.80;99.90
3996;DHT22;2012;49.794;9.722;2023-11-19T01:13:14;7.80;99.90
3996;DHT22;2012;49.794;9.722;2023-11-19T01:15:41;7.80;99.90
3996;DHT22;2012;49.794;9.722;2023-11-19T01:18:08;7.80;99.90
3996;DHT22;2012;49.794;9.722;2023-11-19T01:20:36;7.80;99.90
3996;DHT22;2012;49.794;9.722;2023-11-19T01:23:03;7.80;99.90
3996;DHT22;2012;49.794;9.722;2023-11-19T01:25:30;7.80;99.90
3996;DHT22;2012;49.794;9.722;2023-11-19T01:27:57;7.80;99.90
3996;DHT22;2012;49.794;9.722;2023-11-19T01:30:25;7.90;99.90
3996;DHT22;2012;49.794;9.722;2023-11-19T01:32:52;7.90;99.90
3996;DHT22;2012;49.794;9.722;2023-11-19T01:35:19;7.90;99.90
3996;DHT22;2012;49.794;9.722;2023-11-19T01:37:46;7.90;99.90
3996;DHT22;2012;49.794;9.722;2023-11-19T01:40:13;7.90;99.90
3996;DHT22;2012;49.794;9.722;2023-11-19T01:42:41;7.90;99.90
3996;DHT22;2012;49.794;9.722;2023-11-19T01:45:08;7.90;99.90
3996;DHT22;2012;49.794;9.722;2023-11-19T01:47:36;7.80;99.90
3996;DHT22;2012;49.794;9.722;2023-11-19T01:50:06;7.80;99.90
3996;DHT22;2012;49.794;9.722;2023-11-19T01:52:34;7.90;99.90
3996;DHT22;2012;49.794;9.722;2023-11-19T01:55:07;7.90;99.90
3996;DHT22;2012;49.794;9.722;2023-11-19T01:57:36;8.00;99.90
3996;DHT22;2012;49.794;9.722;2023-11-19T02:00:07;7.90;99.90
3996;DHT22;2012;49.794;9.722;2023-11-19T02:02:43;8.00;99.90
3996;DHT22;2012;49.794;9.722;2023-11-19T02:05:12;8.00;99.90
3996;DHT22;2012;49.794;9.722;2023-11-19T02:07:40;8.00;99.90
3996;DHT22;2012;49.794;9.722;2023-11-19T02:10:07;7.90;99.90
3996;DHT22;2012;49.794;9.722;2023-11-19T02:12:41;7.90;99.90
3996;DHT22;2012;49.794;9.722;2023-11-19T02:15:11;8.00;99.90
3996;DHT22;2012;49.794;9.722;2023-11-19T02:17:38;8.10;99.90
3996;DHT22;2012;49.794;9.722;2023-11-19T02:20:06;8.10;99.90
3996;DHT22;2012;49.794;9.722;2023-11-19T02:22:35;8.10;99.90
3996;DHT22;2012;49.794;9.722;2023-11-19T02:25:18;8.20;99.90
3996;DHT22;2012;49.794;9.722;2023-11-19T02:30:18;8.20;99.90
3996;DHT22;2012;49.794;9.722;2023-11-19T02:32:45;8.20;99.90
3996;DHT22;2012;49.794;9.722;2023-11-19T02:35:13;8.30;99.90
3996;DHT22;2012;49.794;9.722;2023-11-19T02:37:40;8.30;99.90
3996;DHT22;2012;49.794;9.722;2023-11-19T02:40:07;8.30;99.90
3996;DHT22;2012;49.794;9.722;2023-11-19T02:42:36;8.30;99.90
3996;DHT22;2012;49.794;9.722;2023-11-19T02:45:03;8.30;99.90
3996;DHT22;2012;49.794;9.722;2023-11-19T02:47:34;8.30;99.90
3996;DHT22;2012;49.794;9.722;2023-11-19T02:50:01;8.30;99.90
3996;DHT22;2012;49.794;9.722;2023-11-19T02:52:28;8.30;99.90
3996;DHT22;2012;49.794;9.722;2023-11-19T02:54:55;8.40;99.90
3996;DHT22;2012;49.794;9.722;2023-11-19T02:57:22;8.40;99.90
3996;DHT22;2012;49.794;9.722;2023-11-19T02:59:49;8.40;99.90
3996;DHT22;2012;49.794;9.722;2023-11-19T03:02:16;8.40;99.90
3996;DHT22;2012;49.794;9.722;2023-11-19T03:04:45;8.40;99.90
3996;DHT22;2012;49.794;9.722;2023-11-19T03:07:12;8.40;99.90
3996;DHT22;2012;49.794;9.722;2023-11-19T03:09:40;8.40;99.90
3996;DHT22;2012;49.794;9.722;2023-11-19T03:12:07;8.40;99.90
3996;DHT22;2012;49.794;9.722;2023-11-19T03:14:34;8.50;99.90
3996;DHT22;2012;49.794;9.722;2023-11-19T03:17:02;8.50;99.90
3996;DHT22;2012;49.794;9.722;2023-11-19T03:19:30;8.50;99.90
3996;DHT22;2012;49.794;9.722;2023-11-19T03:21:57;8.50;99.90
3996;DHT22;2012;49.794;9.722;2023-11-19T03:24:24;8.50;99.90
3996;DHT22;2012;49.794;9.722;2023-11-19T03:26:51;8.50;99.90
3996;DHT22;2012;49.794;9.722;2023-11-19T03:29:18;8.50;99.90
3996;DHT22;2012;49.794;9.722;2023-11-19T03:31:45;8.50;99.90
3996;DHT22;2012;49.794;9.722;2023-11-19T03:34:12;8.50;99.90
3996;DHT22;2012;49.794;9.722;2023-11-19T03:36:39;8.60;99.90
3996;DHT22;2012;49.794;9.722;2023-11-19T03:39:06;8.60;99.90
3996;DHT22;2012;49.794;9.722;2023-11-19T03:41:33;8.60;99.90
3996;DHT22;2012;49.794;9.722;2023-11-19T03:44:03;8.60;99.90
3996;DHT22;2012;49.794;9.722;2023-11-19T03:46:30;8.70;99.90
3996;DHT22;2012;49.794;9.722;2023-11-19T03:48:57;8.70;99.90
3996;DHT22;2012;49.794;9.722;2023-11-19T03:51:24;8.80;99.90
3996;DHT22;2012;49.794;9.722;2023-11-19T03:53:51;8.80;99.90
3996;DHT22;2012;49.794;9.722;2023-11-19T03:56:18;8.90;99.90
3996;DHT22;2012;49.794;9.722;2023-11-19T03:58:45;8.90;99.90
3996;DHT22;2012;49.794;9.722;2023-11-19T04:01:12;8.90;99.90
3996;DHT22;2012;49.794;9.722;2023-11-19T04:03:42;8.90;99.90
3996;DHT22;2012;49.794;9.722;2023-11-19T04:06:12;9.00;99.90
3996;DHT22;2012;49.794;9.722;2023-11-19T04:08:39;9.00;99.90
3996;DHT22;2012;49.794;9.722;2023-11-19T04:11:06;9.00;99.90
3996;DHT22;2012;49.794;9.722;2023-11-19T04:13:33;9.00;99.90
3996;DHT22;2012;49.794;9.722;2023-11-19T04:16:00;9.00;99.90
3996;DHT22;2012;49.794;9.722;2023-11-19T04:18:28;9.00;99.90
3996;DHT22;2012;49.794;9.722;2023-11-19T04:20:55;9.00;99.90
3996;DHT22;2012;49.794;9.722;2023-11-19T04:23:21;9.10;99.90
3996;DHT22;2012;49.794;9.722;2023-11-19T04:25:48;9.10;99.90
3996;DHT22;2012;49.794;9.722;2023-11-19T04:28:15;9.10;99.90
3996;DHT22;2012;49.794;9.722;2023-11-19T04:30:42;9.10;99.90
3996;DHT22;2012;49.794;9.722;2023-11-19T04:33:09;9.10;99.90
3996;DHT22;2012;49.794;9.722;2023-11-19T04:35:36;9.10;99.90
3996;DHT22;2012;49.794;9.722;2023-11-19T04:38:03;9.20;99.90
3996;DHT22;2012;49.794;9.722;2023-11-19T04:40:30;9.20;99.90
3996;DHT22;2012;49.794;9.722;2023-11-19T04:42:57;9.20;99.90
3996;DHT22;2012;49.794;9.722;2023-11-19T04:45:26;9.20;99.90
3996;DHT22;2012;49.794;9.722;2023-11-19T04:47:53;9.20;99.90
3996;DHT22;2012;49.794;9.722;2023-11-19T04:50:20;9.20;99.90
3996;DHT22;2012;49.794;9.722;2023-11-19T04:52:47;9.30;99.90
3996;DHT22;2012;49.794;9.722;2023-11-19T04:55:14;9.30;99.90
3996;DHT22;2012;49.794;9.722;2023-11-19T04:57:41;9.30;99.90
3996;DHT22;2012;49.794;9.722;2023-11-19T05:00:10;9.30;99.90
3996;DHT22;2012;49.794;9.722;2023-11-19T05:02:40;9.30;99.90
3996;DHT22;2012;49.794;9.722;2023-11-19T05:05:08;9.30;99.90
3996;DHT22;2012;49.794;9.722;2023-11-19T05:07:36;9.30;99.90
3996;DHT22;2012;49.794;9.722;2023-11-19T05:10:03;9.30;99.90
3996;DHT22;2012;49.794;9.722;2023-11-19T05:12:31;9.30;99.90
3996;DHT22;2012;49.794;9.722;2023-11-19T05:14:58;9.40;99.90
3996;DHT22;2012;49.794;9.722;2023-11-19T05:17:25;9.30;99.90
3996;DHT22;2012;49.794;9.722;2023-11-19T05:19:52;9.40;99.90
3996;DHT22;2012;49.794;9.722;2023-11-19T05:22:19;9.30;99.90
3996;DHT22;2012;49.794;9.722;2023-11-19T05:24:47;9.40;99.90
3996;DHT22;2012;49.794;9.722;2023-11-19T05:27:16;9.30;99.90
3996;DHT22;2012;49.794;9.722;2023-11-19T05:29:43;9.40;99.90
3996;DHT22;2012;49.794;9.722;2023-11-19T05:32:10;9.40;99.90
3996;DHT22;2012;49.794;9.722;2023-11-19T05:34:38;9.40;99.90
3996;DHT22;2012;49.794;9.722;2023-11-19T05:37:18;9.40;99.90
3996;DHT22;2012;49.794;9.722;2023-11-19T05:39:45;9.40;99.90
3996;DHT22;2012;49.794;9.722;2023-11-19T05:42:13;9.50;99.90
3996;DHT22;2012;49.794;9.722;2023-11-19T05:44:41;9.50;99.90
3996;DHT22;2012;49.794;9.722;2023-11-19T05:47:08;9.50;99.90
3996;DHT22;2012;49.794;9.722;2023-11-19T05:49:35;9.60;99.90
3996;DHT22;2012;49.794;9.722;2023-11-19T05:52:02;9.50;99.90
3996;DHT22;2012;49.794;9.722;2023-11-19T05:54:30;9.60;99.90
3996;DHT22;2012;49.794;9.722;2023-11-19T05:56:58;9.60;99.90
3996;DHT22;2012;49.794;9.722;2023-11-19T05:59:25;9.60;99.90
3996;DHT22;2012;49.794;9.722;2023-11-19T06:01:52;9.70;99.90
3996;DHT22;2012;49.794;9.722;2023-11-19T06:04:19;9.60;99.90
3996;DHT22;2012;49.794;9.722;2023-11-19T06:06:46;9.70;99.90
3996;DHT22;2012;49.794;9.722;2023-11-19T06:09:13;9.60;99.90
3996;DHT22;2012;49.794;9.722;2023-11-19T06:11:40;9.60;99.90
3996;DHT22;2012;49.794;9.722;2023-11-19T06:14:07;9.70;99.90
3996;DHT22;2012;49.794;9.722;2023-11-19T06:16:34;9.70;99.90
3996;DHT22;2012;49.794;9.722;2023-11-19T06:19:01;9.80;99.90
3996;DHT22;2012;49.794;9.722;2023-11-19T06:21:28;9.80;99.90
3996;DHT22;2012;49.794;9.722;2023-11-19T06:23:55;9.70;99.90
3996;DHT22;2012;49.794;9.722;2023-11-19T06:26:22;9.80;99.90
3996;DHT22;2012;49.794;9.722;2023-11-19T06:28:49;9.80;99.90
3996;DHT22;2012;49.794;9.722;2023-11-19T06:31:16;9.90;99.90
3996;DHT22;2012;49.794;9.722;2023-11-19T06:33:43;9.90;99.90
3996;DHT22;2012;49.794;9.722;2023-11-19T06:36:10;9.90;99.90
3996;DHT22;2012;49.794;9.722;2023-11-19T06:38:37;9.90;99.90
3996;DHT22;2012;49.794;9.722;2023-11-19T06:41:07;9.90;99.90
3996;DHT22;2012;49.794;9.722;2023-11-19T06:43:36;10.00;99.90
3996;DHT22;2012;49.794;9.722;2023-11-19T06:46:14;10.00;99.90
3996;DHT22;2012;49.794;9.722;2023-11-19T06:48:41;10.00;99.90
3996;DHT22;2012;49.794;9.722;2023-11-19T06:51:11;10.00;99.90
3996;DHT22;2012;49.794;9.722;2023-11-19T06:53:38;10.10;99.90
3996;DHT22;2012;49.794;9.722;2023-11-19T06:56:17;10.10;99.90
3996;DHT22;2012;49.794;9.722;2023-11-19T06:58:45;10.20;99.90
3996;DHT22;2012;49.794;9.722;2023-11-19T07:01:11;10.20;99.90
3996;DHT22;2012;49.794;9.722;2023-11-19T07:03:39;10.10;99.90
3996;DHT22;2012;49.794;9.722;2023-11-19T07:06:06;10.10;99.90
3996;DHT22;2012;49.794;9.722;2023-11-19T07:08:33;10.20;99.90
3996;DHT22;2012;49.794;9.722;2023-11-19T07:11:01;10.20;99.90
3996;DHT22;2012;49.794;9.722;2023-11-19T07:13:27;10.20;99.90
3996;DHT22;2012;49.794;9.722;2023-11-19T07:15:56;10.20;99.90
3996;DHT22;2012;49.794;9.722;2023-11-19T07:18:23;10.20;99.90
3996;DHT22;2012;49.794;9.722;2023-11-19T07:20:51;10.20;99.90
3996;DHT22;2012;49.794;9.722;2023-11-19T07:23:18;10.20;99.90
3996;DHT22;2012;49.794;9.722;2023-11-19T07:25:45;10.20;99.90
3996;DHT22;2012;49.794;9.722;2023-11-19T07:28:13;10.20;99.90
3996;DHT22;2012;49.794;9.722;2023-11-19T07:30:41;10.20;99.90
3996;DHT22;2012;49.794;9.722;2023-11-19T07:33:08;10.20;99.90
3996;DHT22;2012;49.794;9.722;2023-11-19T07:35:35;10.20;99.90
3996;DHT22;2012;49.794;9.722;2023-11-19T07:38:02;10.20;99.90
3996;DHT22;2012;49.794;9.722;2023-11-19T07:40:29;10.20;99.90
3996;DHT22;2012;49.794;9.722;2023-11-19T07:42:55;10.20;99.90
3996;DHT22;2012;49.794;9.722;2023-11-19T07:45:22;10.20;99.90
3996;DHT22;2012;49.794;9.722;2023-11-19T07:47:49;10.20;99.90
3996;DHT22;2012;49.794;9.722;2023-11-19T07:50:17;10.30;99.90
3996;DHT22;2012;49.794;9.722;2023-11-19T07:52:47;10.20;99.90
3996;DHT22;2012;49.794;9.722;2023-11-19T07:55:14;10.30;99.90
3996;DHT22;2012;49.794;9.722;2023-11-19T07:57:40;10.50;99.90
3996;DHT22;2012;49.794;9.722;2023-11-19T08:00:08;10.30;99.90
3996;DHT22;2012;49.794;9.722;2023-11-19T08:02:39;10.30;99.90
3996;DHT22;2012;49.794;9.722;2023-11-19T08:05:06;10.30;99.90
3996;DHT22;2012;49.794;9.722;2023-11-19T08:07:33;10.30;99.90
3996;DHT22;2012;49.794;9.722;2023-11-19T08:10:00;10.30;99.90
3996;DHT22;2012;49.794;9.722;2023-11-19T08:12:27;10.40;99.90
3996;DHT22;2012;49.794;9.722;2023-11-19T08:14:54;10.40;99.90
3996;DHT22;2012;49.794;9.722;2023-11-19T08:17:21;10.40;99.90
3996;DHT22;2012;49.794;9.722;2023-11-19T08:19:50;10.40;99.90
3996;DHT22;2012;49.794;9.722;2023-11-19T08:22:17;10.40;99.90
3996;DHT22;2012;49.794;9.722;2023-11-19T08:24:44;10.50;99.90
3996;DHT22;2012;49.794;9.722;2023-11-19T08:27:11;10.50;99.90
3996;DHT22;2012;49.794;9.722;2023-11-19T08:29:38;10.50;99.90
3996;DHT22;2012;49.794;9.722;2023-11-19T08:32:05;10.50;99.90
3996;DHT22;2012;49.794;9.722;2023-11-19T08:34:33;10.60;99.90
3996;DHT22;2012;49.794;9.722;2023-11-19T08:37:00;10.60;99.90
3996;DHT22;2012;49.794;9.722;2023-11-19T08:39:27;10.70;99.90
3996;DHT22;2012;49.794;9.722;2023-11-19T08:41:54;10.60;99.90
3996;DHT22;2012;49.794;9.722;2023-11-19T08:44:22;10.70;99.90
3996;DHT22;2012;49.794;9.722;2023-11-19T08:46:49;10.70;99.90
3996;DHT22;2012;49.794;9.722;2023-11-19T08:49:16;10.70;99.90
3996;DHT22;2012;49.794;9.722;2023-11-19T08:51:43;10.70;99.90
3996;DHT22;2012;49.794;9.722;2023-11-19T08:54:11;10.80;99.90
3996;DHT22;2012;49.794;9.722;2023-11-19T08:56:39;10.70;99.90
3996;DHT22;2012;49.794;9.722;2023-11-19T08:59:06;10.80;99.90
3996;DHT22;2012;49.794;9.722;2023-11-19T09:01:33;10.80;99.90
3996;DHT22;2012;49.794;9.722;2023-11-19T09:04:00;10.90;99.90
3996;DHT22;2012;49.794;9.722;2023-11-19T09:06:27;10.90;99.90
3996;DHT22;2012;49.794;9.722;2023-11-19T09:08:54;11.00;99.90
3996;DHT22;2012;49.794;9.722;2023-11-19T09:11:25;11.30;99.90
3996;DHT22;2012;49.794;9.722;2023-11-19T09:13:52;11.40;99.90
3996;DHT22;2012;49.794;9.722;2023-11-19T09:16:19;11.50;99.90
3996;DHT22;2012;49.794;9.722;2023-11-19T09:18:46;11.70;99.90
3996;DHT22;2012;49.794;9.722;2023-11-19T09:21:13;11.70;99.90
3996;DHT22;2012;49.794;9.722;2023-11-19T09:23:40;11.90;99.90
3996;DHT22;2012;49.794;9.722;2023-11-19T09:26:08;12.00;99.90
3996;DHT22;2012;49.794;9.722;2023-11-19T09:28:36;12.20;99.90
3996;DHT22;2012;49.794;9.722;2023-11-19T09:31:13;12.30;99.90
3996;DHT22;2012;49.794;9.722;2023-11-19T09:33:40;12.50;99.90
3996;DHT22;2012;49.794;9.722;2023-11-19T09:36:07;12.60;99.90
3996;DHT22;2012;49.794;9.722;2023-11-19T09:38:35;12.70;99.90
3996;DHT22;2012;49.794;9.722;2023-11-19T09:41:05;12.70;99.90
3996;DHT22;2012;49.794;9.722;2023-11-19T09:43:36;12.60;99.90
3996;DHT22;2012;49.794;9.722;2023-11-19T09:46:05;12.80;99.90
3996;DHT22;2012;49.794;9.722;2023-11-19T09:48:34;12.60;99.90
3996;DHT22;2012;49.794;9.722;2023-11-19T09:51:01;12.50;99.90
3996;DHT22;2012;49.794;9.722;2023-11-19T09:53:29;12.50;99.90
3996;DHT22;2012;49.794;9.722;2023-11-19T09:55:56;12.50;99.90
3996;DHT22;2012;49.794;9.722;2023-11-19T09:58:23;12.50;99.90
3996;DHT22;2012;49.794;9.722;2023-11-19T10:00:50;12.50;99.90
3996;DHT22;2012;49.794;9.722;2023-11-19T10:03:39;12.50;99.90
3996;DHT22;2012;49.794;9.722;2023-11-19T10:06:08;12.50;99.90
3996;DHT22;2012;49.794;9.722;2023-11-19T10:08:39;12.50;99.90
3996;DHT22;2012;49.794;9.722;2023-11-19T10:11:06;12.40;99.90
3996;DHT22;2012;49.794;9.722;2023-11-19T10:13:37;12.40;99.90
3996;DHT22;2012;49.794;9.722;2023-11-19T10:16:14;12.40;99.90
3996;DHT22;2012;49.794;9.722;2023-11-19T10:18:48;12.50;99.90
3996;DHT22;2012;49.794;9.722;2023-11-19T10:21:19;12.50;99.90
3996;DHT22;2012;49.794;9.722;2023-11-19T10:23:54;12.50;99.90
3996;DHT22;2012;49.794;9.722;2023-11-19T10:26:21;12.40;99.90
3996;DHT22;2012;49.794;9.722;2023-11-19T10:28:49;12.40;99.90
3996;DHT22;2012;49.794;9.722;2023-11-19T10:31:17;12.30;99.90
3996;DHT22;2012;49.794;9.722;2023-11-19T10:33:44;12.40;99.90
3996;DHT22;2012;49.794;9.722;2023-11-19T10:36:12;12.40;99.90
3996;DHT22;2012;49.794;9.722;2023-11-19T10:38:40;12.50;99.90
3996;DHT22;2012;49.794;9.722;2023-11-19T10:41:07;12.60;99.90
3996;DHT22;2012;49.794;9.722;2023-11-19T10:43:44;12.60;99.90
3996;DHT22;2012;49.794;9.722;2023-11-19T10:46:12;12.50;99.90
3996;DHT22;2012;49.794;9.722;2023-11-19T10:48:40;12.50;99.90
3996;DHT22;2012;49.794;9.722;2023-11-19T10:51:07;12.60;99.90
3996;DHT22;2012;49.794;9.722;2023-11-19T10:53:38;12.50;99.90
3996;DHT22;2012;49.794;9.722;2023-11-19T10:56:10;12.50;99.90
3996;DHT22;2012;49.794;9.722;2023-11-19T10:58:40;12.50;99.90
3996;DHT22;2012;49.794;9.722;2023-11-19T11:01:16;12.50;99.90
3996;DHT22;2012;49.794;9.722;2023-11-19T11:03:45;12.50;99.90
3996;DHT22;2012;49.794;9.722;2023-11-19T11:06:13;12.50;99.90
3996;DHT22;2012;49.794;9.722;2023-11-19T11:08:41;12.50;99.90
3996;DHT22;2012;49.794;9.722;2023-11-19T11:11:09;12.50;99.90
3996;DHT22;2012;49.794;9.722;2023-11-19T11:13:41;12.50;99.90
3996;DHT22;2012;49.794;9.722;2023-11-19T11:16:08;12.50;99.90
3996;DHT22;2012;49.794;9.722;2023-11-19T11:18:36;12.50;99.90
3996;DHT22;2012;49.794;9.722;2023-11-19T11:21:07;12.50;99.90
3996;DHT22;2012;49.794;9.722;2023-11-19T11:26:35;12.60;99.90
3996;DHT22;2012;49.794;9.722;2023-11-19T11:29:27;12.70;99.90
3996;DHT22;2012;49.794;9.722;2023-11-19T11:37:39;13.30;99.90
3996;DHT22;2012;49.794;9.722;2023-11-19T11:40:14;13.40;99.90
3996;DHT22;2012;49.794;9.722;2023-11-19T11:42:42;13.40;99.90
3996;DHT22;2012;49.794;9.722;2023-11-19T11:45:14;13.30;99.90
3996;DHT22;2012;49.794;9.722;2023-11-19T11:50:14;13.20;99.90
3996;DHT22;2012;49.794;9.722;2023-11-19T11:55:27;13.20;99.90
3996;DHT22;2012;49.794;9.722;2023-11-19T11:57:57;13.20;99.90
3996;DHT22;2012;49.794;9.722;2023-11-19T12:00:32;13.50;99.90
3996;DHT22;2012;49.794;9.722;2023-11-19T12:03:00;13.80;99.90
3996;DHT22;2012;49.794;9.722;2023-11-19T12:05:28;14.00;99.90
3996;DHT22;2012;49.794;9.722;2023-11-19T12:10:25;14.00;99.90
3996;DHT22;2012;49.794;9.722;2023-11-19T12:12:58;13.90;99.90
3996;DHT22;2012;49.794;9.722;2023-11-19T12:15:27;13.80;99.90
3996;DHT22;2012;49.794;9.722;2023-11-19T12:17:55;13.80;99.90
3996;DHT22;2012;49.794;9.722;2023-11-19T12:20:23;14.10;99.90
3996;DHT22;2012;49.794;9.722;2023-11-19T12:22:54;14.30;99.90
3996;DHT22;2012;49.794;9.722;2023-11-19T12:25:21;14.40;99.90
3996;DHT22;2012;49.794;9.722;2023-11-19T12:27:50;14.50;99.90
3996;DHT22;2012;49.794;9.722;2023-11-19T12:30:25;14.60;99.90
3996;DHT22;2012;49.794;9.722;2023-11-19T12:32:53;14.80;99.90
3996;DHT22;2012;49.794;9.722;2023-11-19T12:35:21;14.80;99.90
3996;DHT22;2012;49.794;9.722;2023-11-19T12:37:49;14.70;99.90
3996;DHT22;2012;49.794;9.722;2023-11-19T12:42:48;14.80;99.90
3996;DHT22;2012;49.794;9.722;2023-11-19T12:45:15;14.90;99.90
3996;DHT22;2012;49.794;9.722;2023-11-19T12:47:43;14.80;99.90
3996;DHT22;2012;49.794;9.722;2023-11-19T12:50:11;15.00;99.90
3996;DHT22;2012;49.794;9.722;2023-11-19T12:52:38;15.10;99.90
3996;DHT22;2012;49.794;9.722;2023-11-19T12:55:27;15.20;99.90
3996;DHT22;2012;49.794;9.722;2023-11-19T12:57:56;15.30;99.90
3996;DHT22;2012;49.794;9.722;2023-11-19T13:00:26;15.40;99.90
3996;DHT22;2012;49.794;9.722;2023-11-19T13:02:55;15.60;99.90
3996;DHT22;2012;49.794;9.722;2023-11-19T13:05:28;15.40;99.90
3996;DHT22;2012;49.794;9.722;2023-11-19T13:10:29;15.40;99.90
3996;DHT22;2012;49.794;9.722;2023-11-19T13:13:07;15.50;99.90
3996;DHT22;2012;49.794;9.722;2023-11-19T13:15:37;15.50;99.90
3996;DHT22;2012;49.794;9.722;2023-11-19T13:18:04;15.50;99.90
3996;DHT22;2012;49.794;9.722;2023-11-19T13:20:33;15.70;99.90
3996;DHT22;2012;49.794;9.722;2023-11-19T13:23:02;15.80;99.90
3996;DHT22;2012;49.794;9.722;2023-11-19T13:25:30;15.70;99.90
3996;DHT22;2012;49.794;9.722;2023-11-19T13:27:58;15.60;99.90
3996;DHT22;2012;49.794;9.722;2023-11-19T13:30:25;15.70;99.90
3996;DHT22;2012;49.794;9.722;2023-11-19T13:32:53;15.70;99.90
3996;DHT22;2012;49.794;9.722;2023-11-19T13:35:22;15.50;99.90
3996;DHT22;2012;49.794;9.722;2023-11-19T13:37:49;15.50;99.90
3996;DHT22;2012;49.794;9.722;2023-11-19T13:40:16;15.50;99.90
3996;DHT22;2012;49.794;9.722;2023-11-19T13:42:44;15.50;99.90
3996;DHT22;2012;49.794;9.722;2023-11-19T13:45:12;15.30;99.90
3996;DHT22;2012;49.794;9.722;2023-11-19T13:47:41;15.20;99.90
3996;DHT22;2012;49.794;9.722;2023-11-19T13:50:10;15.00;99.90
3996;DHT22;2012;49.794;9.722;2023-11-19T13:52:38;15.10;99.90
3996;DHT22;2012;49.794;9.722;2023-11-19T13:55:08;15.20;99.90
3996;DHT22;2012;49.794;9.722;2023-11-19T13:57:36;15.00;99.90
3996;DHT22;2012;49.794;9.722;2023-11-19T14:00:04;15.00;99.90
3996;DHT22;2012;49.794;9.722;2023-11-19T14:02:39;15.00;99.90
3996;DHT22;2012;49.794;9.722;2023-11-19T14:05:07;15.00;99.90
3996;DHT22;2012;49.794;9.722;2023-11-19T14:07:35;15.00;99.90
3996;DHT22;2012;49.794;9.722;2023-11-19T14:10:02;15.00;99.90
3996;DHT22;2012;49.794;9.722;2023-11-19T14:12:29;15.00;99.90
3996;DHT22;2012;49.794;9.722;2023-11-19T14:14:56;15.00;99.90
3996;DHT22;2012;49.794;9.722;2023-11-19T14:17:23;15.00;99.90
3996;DHT22;2012;49.794;9.722;2023-11-19T14:19:52;15.00;99.90
3996;DHT22;2012;49.794;9.722;2023-11-19T14:22:18;15.00;99.90
3996;DHT22;2012;49.794;9.722;2023-11-19T14:24:45;15.00;99.90
3996;DHT22;2012;49.794;9.722;2023-11-19T14:27:12;14.90;99.90
3996;DHT22;2012;49.794;9.722;2023-11-19T14:29:39;14.90;99.90
3996;DHT22;2012;49.794;9.722;2023-11-19T14:32:07;14.80;99.90
3996;DHT22;2012;49.794;9.722;2023-11-19T14:34:34;14.80;99.90
3996;DHT22;2012;49.794;9.722;2023-11-19T14:37:00;14.80;99.90
3996;DHT22;2012;49.794;9.722;2023-11-19T14:39:27;14.60;99.90
3996;DHT22;2012;49.794;9.722;2023-11-19T14:41:57;14.50;99.90
3996;DHT22;2012;49.794;9.722;2023-11-19T14:44:27;14.40;99.90
3996;DHT22;2012;49.794;9.722;2023-11-19T14:46:55;14.30;99.90
3996;DHT22;2012;49.794;9.722;2023-11-19T14:49:22;14.30;99.90
3996;DHT22;2012;49.794;9.722;2023-11-19T14:51:51;14.10;99.90
3996;DHT22;2012;49.794;9.722;2023-11-19T14:54:18;14.10;99.90
3996;DHT22;2012;49.794;9.722;2023-11-19T14:56:45;14.00;99.90
3996;DHT22;2012;49.794;9.722;2023-11-19T14:59:11;14.00;99.90
3996;DHT22;2012;49.794;9.722;2023-11-19T15:01:38;14.00;99.90
3996;DHT22;2012;49.794;9.722;2023-11-19T15:04:07;13.90;99.90
3996;DHT22;2012;49.794;9.722;2023-11-19T15:06:34;13.80;99.90
3996;DHT22;2012;49.794;9.722;2023-11-19T15:09:01;13.80;99.90
3996;DHT22;2012;49.794;9.722;2023-11-19T15:11:28;13.70;99.90
3996;DHT22;2012;49.794;9.722;2023-11-19T15:13:56;13.70;99.90
3996;DHT22;2012;49.794;9.722;2023-11-19T15:16:23;13.70;99.90
3996;DHT22;2012;49.794;9.722;2023-11-19T15:18:58;13.60;99.90
3996;DHT22;2012;49.794;9.722;2023-11-19T15:21:31;13.50;99.90
3996;DHT22;2012;49.794;9.722;2023-11-19T15:23:59;13.50;99.90
3996;DHT22;2012;49.794;9.722;2023-11-19T15:26:26;13.50;99.90
3996;DHT22;2012;49.794;9.722;2023-11-19T15:28:53;13.40;99.90
3996;DHT22;2012;49.794;9.722;2023-11-19T15:31:23;13.40;99.90
3996;DHT22;2012;49.794;9.722;2023-11-19T15:33:49;13.30;99.90
3996;DHT22;2012;49.794;9.722;2023-11-19T15:36:17;13.40;99.90
3996;DHT22;2012;49.794;9.722;2023-11-19T15:38:45;13.30;99.90
3996;DHT22;2012;49.794;9.722;2023-11-19T15:41:15;13.30;99.90
3996;DHT22;2012;49.794;9.722;2023-11-19T15:43:43;13.30;99.90
3996;DHT22;2012;49.794;9.722;2023-11-19T15:46:10;13.30;99.90
3996;DHT22;2012;49.794;9.722;2023-11-19T15:48:40;13.20;99.90
3996;DHT22;2012;49.794;9.722;2023-11-19T15:51:06;13.20;99.90
3996;DHT22;2012;49.794;9.722;2023-11-19T15:53:34;13.20;99.90
3996;DHT22;2012;49.794;9.722;2023-11-19T15:56:01;13.20;99.90
3996;DHT22;2012;49.794;9.722;2023-11-19T15:58:28;13.20;99.90
3996;DHT22;2012;49.794;9.722;2023-11-19T16:00:55;13.20;99.90
3996;DHT22;2012;49.794;9.722;2023-11-19T16:03:22;13.10;99.90
3996;DHT22;2012;49.794;9.722;2023-11-19T16:05:49;13.10;99.90
3996;DHT22;2012;49.794;9.722;2023-11-19T16:08:33;13.10;99.90
3996;DHT22;2012;49.794;9.722;2023-11-19T16:11:00;13.10;99.90
3996;DHT22;2012;49.794;9.722;2023-11-19T16:13:26;13.00;99.90
3996;DHT22;2012;49.794;9.722;2023-11-19T16:15:53;13.10;99.90
3996;DHT22;2012;49.794;9.722;2023-11-19T16:18:20;13.10;99.90
3996;DHT22;2012;49.794;9.722;2023-11-19T16:20:47;13.00;99.90
3996;DHT22;2012;49.794;9.722;2023-11-19T16:23:14;12.90;99.90
3996;DHT22;2012;49.794;9.722;2023-11-19T16:25:44;12.90;99.90
3996;DHT22;2012;49.794;9.722;2023-11-19T16:28:10;12.90;99.90
3996;DHT22;2012;49.794;9.722;2023-11-19T16:30:37;12.90;99.90
3996;DHT22;2012;49.794;9.722;2023-11-19T16:33:04;12.90;99.90
3996;DHT22;2012;49.794;9.722;2023-11-19T16:35:40;12.80;99.90
3996;DHT22;2012;49.794;9.722;2023-11-19T16:38:07;12.70;99.90